Time;durP1;ratioP1;P1;durP2;ratioP2;P2;SDS_P1;SDS_P2;PMS_P1;PMS_P2;Temp;Humidity;BMP_temperature;BMP_pressure;BME280_temperature;BME280_humidity;BME280_pressure;Samples;Min_cycle;Max_cycle;Signal;HPM_P1;HPM_P2
2023/04/12 00:02:18;;;;;;;4.47;1.77;;;;;;;;;;5038309;28;20044;-59
2023/04/12 00:04:44;;;;;;;3.92;2.15;;;;;;;;;;5035981;28;20029;-59
2023/04/12 00:07:10;;;;;;;4.20;1.95;;;;;;;;;;5044043;28;20045;-58
2023/04/12 00:09:38;;;;;;;9.07;2.25;;;;;;;;;;5044463;28;20033;-58
2023/04/12 00:12:05;;;;;;;5.97;1.83;;;;;;;;;;5040003;28;20033;-59
2023/04/12 00:14:31;;;;;;;6.22;1.80;;;;;;;;;;5040384;28;20052;-58
2023/04/12 00:16:57;;;;;;;5.85;1.92;;;;;;;;;;5038748;28;20048;-58
2023/04/12 00:19:26;;;;;;;4.78;1.60;;;;;;;;;;5038257;28;20037;-58
2023/04/12 00:21:52;;;;;;;7.65;1.67;;;;;;;;;;5043633;28;20029;-58
2023/04/12 00:24:18;;;;;;;3.78;1.73;;;;;;;;;;5042200;28;20060;-58
2023/04/12 00:26:44;;;;;;;3.72;1.80;;;;;;;;;;5034564;28;20030;-58
2023/04/12 00:29:10;;;;;;;4.05;1.67;;;;;;;;;;5032690;28;20061;-58
2023/04/12 00:31:36;;;;;;;7.55;2.08;;;;;;;;;;5043289;28;20506;-58
2023/04/12 00:34:03;;;;;;;4.57;1.80;;;;;;;;;;5040888;28;20036;-58
2023/04/12 00:36:29;;;;;;;3.78;1.65;;;;;;;;;;5041112;28;20081;-58
2023/04/12 00:38:55;;;;;;;4.43;1.75;;;;;;;;;;5041452;28;20414;-58
2023/04/12 00:41:23;;;;;;;3.90;1.50;;;;;;;;;;5045269;28;20029;-58
2023/04/12 00:43:50;;;;;;;3.72;1.60;;;;;;;;;;5042288;28;20061;-58
2023/04/12 00:46:18;;;;;;;5.25;1.63;;;;;;;;;;5044834;28;20060;-58
2023/04/12 00:48:46;;;;;;;4.72;1.67;;;;;;;;;;5036536;28;20029;-58
2023/04/12 00:51:13;;;;;;;4.53;2.30;;;;;;;;;;5034983;28;20037;-58
2023/04/12 00:53:41;;;;;;;7.88;1.85;;;;;;;;;;5031797;28;20312;-58
2023/04/12 00:56:10;;;;;;;3.72;1.75;;;;;;;;;;5039462;28;20064;-58
2023/04/12 00:58:36;;;;;;;4.72;1.60;;;;;;;;;;5038840;28;20056;-57
2023/04/12 01:01:03;;;;;;;5.57;1.60;;;;;;;;;;5045792;28;20029;-58
2023/04/12 01:03:29;;;;;;;6.38;1.80;;;;;;;;;;5036618;28;20414;-57
2023/04/12 01:06:03;;;;;;;3.85;1.50;;;;;;;;;;5039645;28;20555;-57
2023/04/12 01:09:12;;;;;;;4.78;1.90;;;;;;;;;;5056353;28;20048;-58
2023/04/12 01:11:55;;;;;;;3.78;2.00;;;;;;;;;;5037072;28;20041;-58
2023/04/12 01:14:53;;;;;;;6.72;1.80;;;;;;;;;;5044299;28;20045;-58
2023/04/12 01:17:26;;;;;;;8.23;2.38;;;;;;;;;;5033573;28;20060;-57
2023/04/12 01:19:52;;;;;;;4.68;1.80;;;;;;;;;;5044833;28;20053;-59
2023/04/12 01:22:57;;;;;;;6.30;1.70;;;;;;;;;;5033915;28;20025;-58
2023/04/12 01:25:37;;;;;;;5.90;1.83;;;;;;;;;;5040180;28;20415;-58
2023/04/12 01:28:05;;;;;;;4.65;1.92;;;;;;;;;;5044280;28;20041;-57
2023/04/12 01:30:32;;;;;;;4.20;1.98;;;;;;;;;;5036526;28;20033;-57
2023/04/12 01:33:01;;;;;;;3.58;1.50;;;;;;;;;;5043996;28;20371;-58
2023/04/12 01:35:31;;;;;;;5.18;1.83;;;;;;;;;;5040419;28;20029;-58
2023/04/12 01:37:58;;;;;;;4.55;1.80;;;;;;;;;;5048911;28;20049;-58
2023/04/12 01:40:30;;;;;;;3.83;2.13;;;;;;;;;;5040457;28;20044;-58
2023/04/12 01:43:12;;;;;;;2.60;1.58;;;;;;;;;;5039867;28;20045;-57
2023/04/12 01:45:39;;;;;;;3.20;1.65;;;;;;;;;;5041240;28;20038;-57
2023/04/12 01:48:08;;;;;;;5.28;1.65;;;;;;;;;;5041600;28;20052;-58
2023/04/12 01:50:56;;;;;;;3.67;1.90;;;;;;;;;;5039271;28;20041;-58
2023/04/12 01:53:29;;;;;;;4.57;1.90;;;;;;;;;;5043340;28;20045;-58
2023/04/12 01:56:00;;;;;;;2.70;1.85;;;;;;;;;;5045461;28;20491;-58
2023/04/12 01:58:28;;;;;;;3.70;2.15;;;;;;;;;;5035061;28;20361;-58
2023/04/12 02:00:56;;;;;;;2.05;1.40;;;;;;;;;;5032917;28;20038;-57
2023/04/12 02:03:23;;;;;;;3.42;1.90;;;;;;;;;;5041294;28;20041;-57
2023/04/12 02:05:51;;;;;;;2.40;1.83;;;;;;;;;;5042500;28;20664;-58
2023/04/12 02:08:20;;;;;;;4.35;1.85;;;;;;;;;;5042580;28;20044;-58
2023/04/12 02:10:46;;;;;;;3.38;2.00;;;;;;;;;;5044014;28;20039;-57
2023/04/12 02:13:16;;;;;;;3.55;2.13;;;;;;;;;;5042511;28;20041;-57
2023/04/12 02:15:43;;;;;;;2.45;1.90;;;;;;;;;;5042947;28;20040;-57
2023/04/12 02:18:10;;;;;;;3.88;1.90;;;;;;;;;;5041122;28;20056;-58
2023/04/12 02:20:37;;;;;;;2.38;1.70;;;;;;;;;;5036115;28;20036;-58
2023/04/12 02:23:03;;;;;;;2.92;1.63;;;;;;;;;;5033317;28;20415;-58
2023/04/12 02:25:32;;;;;;;1.85;1.50;;;;;;;;;;5020852;28;20049;-58
2023/04/12 02:27:58;;;;;;;3.45;1.48;;;;;;;;;;5041251;28;20045;-58
2023/04/12 02:30:24;;;;;;;3.00;1.80;;;;;;;;;;5045904;28;20037;-57
2023/04/12 02:32:52;;;;;;;2.22;1.70;;;;;;;;;;5043029;28;20048;-57
2023/04/12 02:35:24;;;;;;;4.60;1.50;;;;;;;;;;5047381;28;20055;-58
2023/04/12 02:37:55;;;;;;;1.88;1.50;;;;;;;;;;5046470;28;20553;-58
2023/04/12 02:40:26;;;;;;;1.80;1.50;;;;;;;;;;5038911;28;20056;-58
2023/04/12 02:42:54;;;;;;;1.83;1.40;;;;;;;;;;5044066;28;20037;-58
2023/04/12 02:45:21;;;;;;;2.92;1.63;;;;;;;;;;5037188;28;20487;-58
2023/04/12 02:47:47;;;;;;;3.47;1.55;;;;;;;;;;5039434;28;20502;-58
2023/04/12 02:50:13;;;;;;;3.25;1.48;;;;;;;;;;5045441;28;20036;-57
2023/04/12 02:52:56;;;;;;;4.30;1.48;;;;;;;;;;5043565;28;20045;-57
2023/04/12 02:55:24;;;;;;;1.85;1.48;;;;;;;;;;5036314;28;20037;-57
2023/04/12 02:57:50;;;;;;;2.45;1.40;;;;;;;;;;5043606;28;20044;-58
2023/04/12 03:00:17;;;;;;;2.08;1.40;;;;;;;;;;5041087;28;20041;-58
2023/04/12 03:02:50;;;;;;;2.58;1.65;;;;;;;;;;5041033;28;20036;-58
2023/04/12 03:05:26;;;;;;;1.90;1.50;;;;;;;;;;5038756;28;20032;-59
2023/04/12 03:07:52;;;;;;;3.42;1.40;;;;;;;;;;5045637;28;20053;-58
2023/04/12 03:10:24;;;;;;;4.72;1.85;;;;;;;;;;5021606;28;20041;-58
2023/04/12 03:12:59;;;;;;;2.13;1.50;;;;;;;;;;5042714;28;20044;-57
2023/04/12 03:15:32;;;;;;;2.25;1.45;;;;;;;;;;5041736;28;20399;-58
2023/04/12 03:17:59;;;;;;;1.60;1.50;;;;;;;;;;5042769;28;20033;-57
2023/04/12 03:20:29;;;;;;;1.63;1.48;;;;;;;;;;5036102;28;20044;-58
2023/04/12 03:23:00;;;;;;;3.75;1.80;;;;;;;;;;5043224;28;20048;-58
2023/04/12 03:25:28;;;;;;;3.30;1.50;;;;;;;;;;5035425;28;20049;-58
2023/04/12 03:27:59;;;;;;;2.10;1.40;;;;;;;;;;5024746;28;20041;-58
2023/04/12 03:30:41;;;;;;;2.95;1.50;;;;;;;;;;5044350;28;20043;-58
2023/04/12 03:33:07;;;;;;;3.17;1.70;;;;;;;;;;5038975;28;20029;-58
2023/04/12 03:35:33;;;;;;;4.63;2.10;;;;;;;;;;5035700;28;20040;-58
2023/04/12 03:38:02;;;;;;;2.25;1.90;;;;;;;;;;5035557;28;20040;-57
2023/04/12 03:40:28;;;;;;;4.43;2.08;;;;;;;;;;5027515;28;20037;-58
2023/04/12 03:42:57;;;;;;;3.25;2.00;;;;;;;;;;5043986;28;20048;-57
2023/04/12 03:45:24;;;;;;;9.20;2.33;;;;;;;;;;5043143;28;20410;-58
2023/04/12 03:47:53;;;;;;;;;;;;;;;;;;5042913;28;20044;-57
2023/04/12 03:50:21;;;;;;;4.72;2.60;;;;;;;;;;5044373;28;20401;-57
2023/04/12 03:52:53;;;;;;;5.70;2.28;;;;;;;;;;5043256;28;20033;-57
2023/04/12 03:55:20;;;;;;;4.93;2.80;;;;;;;;;;5028617;28;20045;-58
2023/04/12 03:57:50;;;;;;;5.93;2.60;;;;;;;;;;5014198;28;20040;-57
2023/04/12 04:00:16;;;;;;;5.40;2.47;;;;;;;;;;5032361;28;20033;-57
2023/04/12 04:03:01;;;;;;;6.72;3.05;;;;;;;;;;5038025;28;20033;-58
2023/04/12 04:05:29;;;;;;;4.63;2.30;;;;;;;;;;5039191;28;20072;-58
2023/04/12 04:07:59;;;;;;;4.45;2.60;;;;;;;;;;5025873;28;20045;-58
2023/04/12 04:10:30;;;;;;;4.95;2.67;;;;;;;;;;5033216;28;20416;-58
2023/04/12 04:12:56;;;;;;;4.55;2.45;;;;;;;;;;5033300;28;20052;-58
2023/04/12 04:15:26;;;;;;;4.72;3.00;;;;;;;;;;5035553;28;20540;-58
2023/04/12 04:17:52;;;;;;;7.00;3.03;;;;;;;;;;5037181;28;20033;-59
2023/04/12 04:20:19;;;;;;;5.10;2.72;;;;;;;;;;5039923;28;20033;-58
2023/04/12 04:22:48;;;;;;;7.97;3.97;;;;;;;;;;5040426;28;20048;-58
2023/04/12 04:25:15;;;;;;;13.15;4.35;;;;;;;;;;5039845;28;20538;-58
2023/04/12 04:27:48;;;;;;;9.32;3.45;;;;;;;;;;5031196;28;20045;-58
2023/04/12 04:30:15;;;;;;;5.45;2.90;;;;;;;;;;5034678;28;20040;-58
2023/04/12 04:32:44;;;;;;;13.38;4.70;;;;;;;;;;5044647;28;20407;-58
2023/04/12 04:35:15;;;;;;;13.32;5.07;;;;;;;;;;5044928;28;20414;-58
2023/04/12 04:37:54;;;;;;;12.18;4.68;;;;;;;;;;5032910;28;20052;-58
2023/04/12 04:40:22;;;;;;;9.20;4.00;;;;;;;;;;5044143;28;20526;-57
2023/04/12 04:42:53;;;;;;;7.03;3.38;;;;;;;;;;5040046;28;20035;-57
2023/04/12 04:45:25;;;;;;;6.47;3.45;;;;;;;;;;5046647;28;20242;-58
2023/04/12 04:47:52;;;;;;;6.15;3.17;;;;;;;;;;5047053;28;20125;-57
2023/04/12 04:50:20;;;;;;;7.55;3.22;;;;;;;;;;5048658;28;20033;-58
2023/04/12 04:52:47;;;;;;;9.50;3.35;;;;;;;;;;5039630;28;20500;-58
2023/04/12 04:55:14;;;;;;;8.70;3.75;;;;;;;;;;5041979;28;20052;-58
2023/04/12 04:57:44;;;;;;;6.45;3.00;;;;;;;;;;5036895;28;20048;-57
2023/04/12 05:00:10;;;;;;;6.43;3.38;;;;;;;;;;5041311;28;20032;-57
2023/04/12 05:02:42;;;;;;;8.18;3.40;;;;;;;;;;5044453;28;20040;-58
2023/04/12 05:05:12;;;;;;;8.25;3.33;;;;;;;;;;5027555;28;20491;-58
2023/04/12 05:07:38;;;;;;;7.70;3.40;;;;;;;;;;5036186;28;20635;-55
2023/04/12 05:10:05;;;;;;;5.68;2.97;;;;;;;;;;5044982;28;20395;-56
2023/04/12 05:12:35;;;;;;;7.53;3.08;;;;;;;;;;5037009;28;20033;-57
2023/04/12 05:15:03;;;;;;;7.70;3.40;;;;;;;;;;5021152;28;20499;-57
2023/04/12 05:17:29;;;;;;;6.60;2.88;;;;;;;;;;5040442;28;20045;-57
2023/04/12 05:19:55;;;;;;;6.18;3.03;;;;;;;;;;5037722;28;20045;-58
2023/04/12 05:22:22;;;;;;;6.60;3.08;;;;;;;;;;5039885;28;20032;-57
2023/04/12 05:24:48;;;;;;;5.38;3.30;;;;;;;;;;5043190;28;20124;-57
2023/04/12 05:27:15;;;;;;;5.72;3.20;;;;;;;;;;5045168;28;20033;-58
2023/04/12 05:29:43;;;;;;;7.47;3.33;;;;;;;;;;5022381;28;20056;-58
2023/04/12 05:32:10;;;;;;;9.63;3.08;;;;;;;;;;5046329;28;20040;-57
2023/04/12 05:34:37;;;;;;;6.47;2.75;;;;;;;;;;5041642;28;20041;-57
2023/04/12 05:37:03;;;;;;;6.05;3.08;;;;;;;;;;5039235;28;20029;-57
2023/04/12 05:39:34;;;;;;;4.47;2.40;;;;;;;;;;5040535;28;20033;-57
2023/04/12 05:42:01;;;;;;;5.00;2.78;;;;;;;;;;5044486;28;20040;-57
2023/04/12 05:44:27;;;;;;;6.10;3.00;;;;;;;;;;5050031;28;20071;-57
2023/04/12 05:46:53;;;;;;;6.05;2.92;;;;;;;;;;5047784;28;20410;-57
2023/04/12 05:49:20;;;;;;;3.50;2.53;;;;;;;;;;5024839;28;20049;-57
2023/04/12 05:51:46;;;;;;;4.10;2.53;;;;;;;;;;5036652;28;20044;-57
2023/04/12 05:54:20;;;;;;;4.22;2.35;;;;;;;;;;5042089;28;20506;-56
2023/04/12 05:56:47;;;;;;;3.80;2.00;;;;;;;;;;5036453;28;20054;-56
2023/04/12 05:59:13;;;;;;;6.40;3.33;;;;;;;;;;5036781;28;20049;-57
2023/04/12 06:01:43;;;;;;;2.78;2.00;;;;;;;;;;5038201;28;20048;-57
2023/04/12 06:04:09;;;;;;;;;;;;;;;;;;5043805;28;20037;-57
2023/04/12 06:06:37;;;;;;;4.03;2.33;;;;;;;;;;5044022;28;19920;-57
2023/04/12 06:09:04;;;;;;;3.55;2.50;;;;;;;;;;5037460;28;20041;-57
2023/04/12 06:11:32;;;;;;;3.58;2.33;;;;;;;;;;5035273;28;20072;-58
2023/04/12 06:14:02;;;;;;;3.22;2.00;;;;;;;;;;5038911;28;20029;-57
2023/04/12 06:16:28;;;;;;;5.72;2.45;;;;;;;;;;5040187;28;20686;-58
2023/04/12 06:18:54;;;;;;;4.85;1.80;;;;;;;;;;5039371;28;20049;-58
2023/04/12 06:21:22;;;;;;;3.67;1.85;;;;;;;;;;5038028;28;20037;-57
2023/04/12 06:23:48;;;;;;;4.90;1.80;;;;;;;;;;5036737;28;20060;-58
2023/04/12 06:26:14;;;;;;;2.55;1.90;;;;;;;;;;5034112;28;20664;-56
2023/04/12 06:28:41;;;;;;;3.45;2.08;;;;;;;;;;5035370;28;20029;-57
2023/04/12 06:31:08;;;;;;;2.53;1.65;;;;;;;;;;5034685;28;20029;-56
2023/04/12 06:33:37;;;;;;;3.15;1.92;;;;;;;;;;5031911;28;20049;-56
2023/04/12 06:36:07;;;;;;;3.75;1.90;;;;;;;;;;5038788;28;20524;-57
2023/04/12 06:38:33;;;;;;;2.92;1.80;;;;;;;;;;5040383;28;20033;-56
2023/04/12 06:41:00;;;;;;;2.05;1.58;;;;;;;;;;5043185;28;20033;-58
2023/04/12 06:43:26;;;;;;;2.78;1.88;;;;;;;;;;5045412;28;20494;-58
2023/04/12 06:45:52;;;;;;;5.47;1.70;;;;;;;;;;5039561;28;20053;-57
2023/04/12 06:48:18;;;;;;;2.13;1.80;;;;;;;;;;5042254;28;20029;-56
2023/04/12 06:50:44;;;;;;;2.45;1.50;;;;;;;;;;5040979;28;20043;-56
2023/04/12 06:53:12;;;;;;;2.60;1.63;;;;;;;;;;5041505;28;20036;-56
2023/04/12 06:55:38;;;;;;;2.47;1.65;;;;;;;;;;5045978;28;20045;-56
2023/04/12 06:58:05;;;;;;;3.60;1.92;;;;;;;;;;5041956;28;20041;-56
2023/04/12 07:00:31;;;;;;;4.97;1.80;;;;;;;;;;5041490;28;20037;-56
2023/04/12 07:02:57;;;;;;;2.35;1.55;;;;;;;;;;5040497;28;20074;-57
2023/04/12 07:05:23;;;;;;;2.42;1.73;;;;;;;;;;5040465;28;20036;-57
2023/04/12 07:07:50;;;;;;;1.98;1.60;;;;;;;;;;5040939;28;20036;-57
2023/04/12 07:10:16;;;;;;;3.05;1.98;;;;;;;;;;5042867;28;20645;-57
2023/04/12 07:12:42;;;;;;;5.65;2.08;;;;;;;;;;5040101;28;20029;-58
2023/04/12 07:15:08;;;;;;;3.75;1.95;;;;;;;;;;5040936;28;20056;-58
2023/04/12 07:17:35;;;;;;;2.80;1.80;;;;;;;;;;5037020;28;20036;-58
2023/04/12 07:20:01;;;;;;;2.38;1.60;;;;;;;;;;5032210;28;20498;-57
2023/04/12 07:22:27;;;;;;;2.72;1.60;;;;;;;;;;5032493;28;20406;-58
2023/04/12 07:24:54;;;;;;;1.98;1.45;;;;;;;;;;5036991;28;20046;-56
2023/04/12 07:27:20;;;;;;;4.53;1.73;;;;;;;;;;5043840;28;20422;-56
2023/04/12 07:29:46;;;;;;;2.08;1.75;;;;;;;;;;5042797;28;20052;-57
2023/04/12 07:32:12;;;;;;;2.25;1.58;;;;;;;;;;5043980;28;20033;-57
2023/04/12 07:34:38;;;;;;;1.67;1.52;;;;;;;;;;5036839;28;20040;-57
2023/04/12 07:37:05;;;;;;;1.98;1.63;;;;;;;;;;5034018;28;20053;-56
2023/04/12 07:39:31;;;;;;;2.40;1.70;;;;;;;;;;5033296;28;20047;-57
2023/04/12 07:41:57;;;;;;;2.42;1.95;;;;;;;;;;5039105;28;20048;-58
2023/04/12 07:44:23;;;;;;;1.85;1.60;;;;;;;;;;5039756;28;20044;-57
2023/04/12 07:46:50;;;;;;;3.90;1.60;;;;;;;;;;5038206;28;20052;-57
2023/04/12 07:49:16;;;;;;;2.25;1.50;;;;;;;;;;5038593;28;20048;-57
2023/04/12 07:51:44;;;;;;;1.98;1.50;;;;;;;;;;5041974;28;20033;-57
2023/04/12 07:54:12;;;;;;;2.30;1.65;;;;;;;;;;5045344;28;20029;-58
2023/04/12 07:56:38;;;;;;;1.90;1.50;;;;;;;;;;5037936;28;20525;-58
2023/04/12 07:59:04;;;;;;;3.60;1.63;;;;;;;;;;5039114;28;20044;-57
2023/04/12 08:01:31;;;;;;;4.57;1.83;;;;;;;;;;5032678;28;20043;-55
2023/04/12 08:03:57;;;;;;;2.33;1.50;;;;;;;;;;5036331;28;20044;-57
2023/04/12 08:06:23;;;;;;;2.47;1.80;;;;;;;;;;5031089;28;20053;-57
2023/04/12 08:08:49;;;;;;;2.80;1.63;;;;;;;;;;5035570;28;20037;-57
2023/04/12 08:11:15;;;;;;;2.95;1.80;;;;;;;;;;5031422;28;20044;-56
2023/04/12 08:13:41;;;;;;;1.70;1.60;;;;;;;;;;5035042;28;20040;-56
2023/04/12 08:16:08;;;;;;;1.83;1.65;;;;;;;;;;5040571;28;20057;-57
2023/04/12 08:18:34;;;;;;;3.08;1.75;;;;;;;;;;5034741;28;20040;-57
2023/04/12 08:21:00;;;;;;;2.08;1.80;;;;;;;;;;5034042;28;20029;-56
2023/04/12 08:23:26;;;;;;;3.83;1.60;;;;;;;;;;5033581;28;20041;-57
2023/04/12 08:26:01;;;;;;;2.92;1.88;;;;;;;;;;5034530;28;20040;-57
2023/04/12 08:28:28;;;;;;;3.60;1.75;;;;;;;;;;5036275;28;20059;-57
2023/04/12 08:30:54;;;;;;;5.05;2.05;;;;;;;;;;5032027;28;20046;-58
2023/04/12 08:33:20;;;;;;;1.88;1.38;;;;;;;;;;5033821;28;20041;-57
2023/04/12 08:35:46;;;;;;;3.67;2.15;;;;;;;;;;5033294;28;20553;-58
2023/04/12 08:38:13;;;;;;;2.00;1.80;;;;;;;;;;5032435;28;20089;-57
2023/04/12 08:40:41;;;;;;;4.07;1.65;;;;;;;;;;5028350;28;20511;-57
2023/04/12 08:43:10;;;;;;;3.38;2.10;;;;;;;;;;5034547;28;20037;-58
2023/04/12 08:45:36;;;;;;;2.13;1.77;;;;;;;;;;5032775;28;20040;-58
2023/04/12 08:48:04;;;;;;;3.00;2.20;;;;;;;;;;5025760;28;20043;-57
2023/04/12 08:50:31;;;;;;;1.80;1.60;;;;;;;;;;5035316;28;20033;-57
2023/04/12 08:52:58;;;;;;;2.53;1.85;;;;;;;;;;5037492;28;20056;-58
2023/04/12 08:55:24;;;;;;;3.63;1.95;;;;;;;;;;5036082;28;20029;-57
2023/04/12 08:57:53;;;;;;;3.97;2.10;;;;;;;;;;5037426;28;20053;-58
2023/04/12 09:00:21;;;;;;;2.72;1.83;;;;;;;;;;5043370;28;20040;-58
2023/04/12 09:02:47;;;;;;;5.78;2.10;;;;;;;;;;5038882;28;20029;-57
2023/04/12 09:05:14;;;;;;;4.53;2.00;;;;;;;;;;5037763;28;20053;-57
2023/04/12 09:07:41;;;;;;;1.80;1.70;;;;;;;;;;5036318;28;20052;-57
2023/04/12 09:10:07;;;;;;;5.10;2.15;;;;;;;;;;5044202;28;20029;-57
2023/04/12 09:12:34;;;;;;;5.18;3.03;;;;;;;;;;5032035;28;20042;-57
2023/04/12 09:15:07;;;;;;;3.13;2.70;;;;;;;;;;5037981;28;20463;-57
2023/04/12 09:17:35;;;;;;;4.15;2.05;;;;;;;;;;5029849;28;20037;-57
2023/04/12 09:20:06;;;;;;;3.17;2.30;;;;;;;;;;5035547;28;20522;-57
2023/04/12 09:22:37;;;;;;;3.08;2.22;;;;;;;;;;5033190;28;20033;-56
2023/04/12 09:25:04;;;;;;;4.07;2.33;;;;;;;;;;5036012;28;20044;-57
2023/04/12 09:27:45;;;;;;;5.93;2.60;;;;;;;;;;5037380;28;20554;-57
2023/04/12 09:30:13;;;;;;;4.20;2.80;;;;;;;;;;5042362;28;20033;-57
2023/04/12 09:32:39;;;;;;;2.88;2.33;;;;;;;;;;5043726;28;20055;-57
2023/04/12 09:35:06;;;;;;;5.88;2.70;;;;;;;;;;5047327;28;20144;-57
2023/04/12 09:37:32;;;;;;;3.38;2.65;;;;;;;;;;5038552;28;20511;-57
2023/04/12 09:40:04;;;;;;;4.53;2.60;;;;;;;;;;5043737;28;20045;-57
2023/04/12 09:42:33;;;;;;;5.43;2.60;;;;;;;;;;5036128;28;20045;-57
2023/04/12 09:45:01;;;;;;;7.25;3.08;;;;;;;;;;5036954;28;20040;-56
2023/04/12 09:47:38;;;;;;;3.63;2.58;;;;;;;;;;5043861;28;20487;-57
2023/04/12 09:50:06;;;;;;;4.35;2.50;;;;;;;;;;5039220;28;20052;-58
2023/04/12 09:52:37;;;;;;;3.90;2.50;;;;;;;;;;5045051;28;20337;-58
2023/04/12 09:55:08;;;;;;;5.18;3.03;;;;;;;;;;5042683;28;20037;-58
2023/04/12 09:57:38;;;;;;;2.97;2.33;;;;;;;;;;5031717;28;20503;-57
2023/04/12 10:00:15;;;;;;;5.68;2.75;;;;;;;;;;5029304;28;20041;-57
2023/04/12 10:02:44;;;;;;;4.53;2.60;;;;;;;;;;5037105;28;20144;-58
2023/04/12 10:05:13;;;;;;;5.00;2.80;;;;;;;;;;5037977;28;20402;-57
2023/04/12 10:07:43;;;;;;;4.80;2.63;;;;;;;;;;5038696;28;20523;-57
2023/04/12 10:10:15;;;;;;;4.13;2.55;;;;;;;;;;5039458;28;20033;-57
2023/04/12 10:12:42;;;;;;;5.03;3.00;;;;;;;;;;5037737;28;20052;-57
2023/04/12 10:15:14;;;;;;;3.40;2.88;;;;;;;;;;5040598;28;20033;-58
2023/04/12 10:17:44;;;;;;;5.38;2.72;;;;;;;;;;5037577;28;20036;-58
2023/04/12 10:20:11;;;;;;;2.97;2.10;;;;;;;;;;5032404;28;20044;-58
2023/04/12 10:22:39;;;;;;;3.55;2.08;;;;;;;;;;5039589;28;20056;-57
2023/04/12 10:25:14;;;;;;;3.45;2.10;;;;;;;;;;5036933;28;20410;-57
2023/04/12 10:27:42;;;;;;;4.47;1.90;;;;;;;;;;5041400;28;20052;-57
2023/04/12 10:30:28;;;;;;;4.70;1.92;;;;;;;;;;5043340;28;20037;-57
2023/04/12 10:33:03;;;;;;;4.13;2.15;;;;;;;;;;5038475;28;20053;-57
2023/04/12 10:35:49;;;;;;;6.57;2.90;;;;;;;;;;5037096;28;20048;-57
2023/04/12 10:38:16;;;;;;;5.20;2.95;;;;;;;;;;5034430;28;20056;-56
2023/04/12 10:41:13;;;;;;;5.22;2.13;;;;;;;;;;5045150;28;20040;-57
2023/04/12 10:43:45;;;;;;;2.47;1.63;;;;;;;;;;5035225;28;20049;-56
2023/04/12 10:46:36;;;;;;;3.55;1.67;;;;;;;;;;5039931;28;20064;-57
2023/04/12 10:49:10;;;;;;;4.32;1.48;;;;;;;;;;5036676;28;20053;-58
2023/04/12 10:51:37;;;;;;;2.60;1.63;;;;;;;;;;5040561;28;20029;-57
2023/04/12 10:54:16;;;;;;;4.78;1.52;;;;;;;;;;5039808;28;20041;-58
2023/04/12 10:56:44;;;;;;;2.88;1.70;;;;;;;;;;5032091;28;20044;-57
2023/04/12 10:59:56;;;;;;;4.00;2.17;;;;;;;;;;5035754;28;20048;-58
2023/04/12 11:02:22;;;;;;;4.28;2.10;;;;;;;;;;5037188;28;20049;-59
2023/04/12 11:05:07;;;;;;;2.90;1.70;;;;;;;;;;5033258;28;20036;-57
2023/04/12 11:07:53;;;;;;;3.42;1.70;;;;;;;;;;5037578;28;20112;-58
2023/04/12 11:10:38;;;;;;;2.40;1.52;;;;;;;;;;5024200;28;20403;-58
2023/04/12 11:13:07;;;;;;;1.80;1.50;;;;;;;;;;5035409;28;20478;-58
2023/04/12 11:15:33;;;;;;;1.80;1.30;;;;;;;;;;5034741;28;20037;-58
2023/04/12 11:18:04;;;;;;;3.78;1.75;;;;;;;;;;5037977;28;20041;-58
2023/04/12 11:20:32;;;;;;;4.03;1.40;;;;;;;;;;5032310;28;20033;-57
2023/04/12 11:22:59;;;;;;;2.45;1.30;;;;;;;;;;5036023;28;20041;-58
2023/04/12 11:25:27;;;;;;;1.45;1.35;;;;;;;;;;5033539;28;20037;-57
2023/04/12 11:27:54;;;;;;;4.03;1.58;;;;;;;;;;5027520;28;20041;-58
2023/04/12 11:30:22;;;;;;;1.50;1.10;;;;;;;;;;5031797;28;20499;-58
2023/04/12 11:32:48;;;;;;;2.60;1.15;;;;;;;;;;5033960;28;20037;-58
2023/04/12 11:35:23;;;;;;;4.40;1.33;;;;;;;;;;5034768;28;20040;-57
2023/04/12 11:37:49;;;;;;;3.17;1.40;;;;;;;;;;5037330;28;20037;-58
2023/04/12 11:40:15;;;;;;;3.72;1.30;;;;;;;;;;5030780;28;20048;-56
2023/04/12 11:42:41;;;;;;;6.15;1.80;;;;;;;;;;5040530;28;20425;-57
2023/04/12 11:45:10;;;;;;;1.30;1.00;;;;;;;;;;5031074;28;20029;-58
2023/04/12 11:47:42;;;;;;;1.90;1.52;;;;;;;;;;5030114;28;20064;-57
2023/04/12 11:50:09;;;;;;;1.92;1.48;;;;;;;;;;5027814;28;20048;-57
2023/04/12 11:52:35;;;;;;;2.63;1.02;;;;;;;;;;5036811;28;20047;-58
2023/04/12 11:55:05;;;;;;;2.10;1.25;;;;;;;;;;5037447;28;20055;-58
2023/04/12 11:57:33;;;;;;;1.58;1.00;;;;;;;;;;5032540;28;20410;-57
2023/04/12 11:59:59;;;;;;;1.73;1.30;;;;;;;;;;5036757;28;20041;-58
2023/04/12 12:02:26;;;;;;;2.47;1.35;;;;;;;;;;5034361;28;20045;-57
2023/04/12 12:04:54;;;;;;;2.47;1.20;;;;;;;;;;5034544;28;20041;-56
2023/04/12 12:07:21;;;;;;;2.10;1.30;;;;;;;;;;5034445;28;20030;-58
2023/04/12 12:09:48;;;;;;;2.35;1.55;;;;;;;;;;5033715;28;20491;-55
2023/04/12 12:12:15;;;;;;;2.38;1.15;;;;;;;;;;5034950;28;20509;-58
2023/04/12 12:14:44;;;;;;;2.25;1.25;;;;;;;;;;5036958;28;20040;-57
2023/04/12 12:17:12;;;;;;;3.13;1.50;;;;;;;;;;5035948;28;20037;-58
2023/04/12 12:19:42;;;;;;;3.60;1.00;;;;;;;;;;5042024;28;20041;-58
2023/04/12 12:22:20;;;;;;;2.13;1.25;;;;;;;;;;5046400;28;20060;-59
2023/04/12 12:24:51;;;;;;;2.28;1.42;;;;;;;;;;5021958;28;20041;-58
2023/04/12 12:27:29;;;;;;;2.08;1.30;;;;;;;;;;5034126;28;20044;-57
2023/04/12 12:30:00;;;;;;;3.22;1.60;;;;;;;;;;5035372;28;20049;-58
2023/04/12 12:32:32;;;;;;;1.38;1.05;;;;;;;;;;5037014;28;20037;-57
2023/04/12 12:34:58;;;;;;;3.53;1.45;;;;;;;;;;5044933;28;20025;-58
2023/04/12 12:37:26;;;;;;;2.72;1.13;;;;;;;;;;5044880;28;20051;-57
2023/04/12 12:40:06;;;;;;;1.75;1.13;;;;;;;;;;5034929;28;20053;-59
2023/04/12 12:42:35;;;;;;;2.33;1.35;;;;;;;;;;5033140;28;20394;-57
2023/04/12 12:45:03;;;;;;;1.88;1.20;;;;;;;;;;5043146;28;20052;-57
2023/04/12 12:47:33;;;;;;;2.17;1.10;;;;;;;;;;5042991;28;20045;-57
2023/04/12 12:49:59;;;;;;;2.17;0.80;;;;;;;;;;5042107;28;20035;-57
2023/04/12 12:52:25;;;;;;;2.80;1.25;;;;;;;;;;5039081;28;20045;-58
2023/04/12 12:54:51;;;;;;;2.00;1.13;;;;;;;;;;5036129;28;20483;-57
2023/04/12 12:57:18;;;;;;;2.13;1.33;;;;;;;;;;5038027;28;20056;-57
2023/04/12 12:59:44;;;;;;;2.55;0.90;;;;;;;;;;5034660;28;20446;-57
2023/04/12 13:02:10;;;;;;;2.05;0.98;;;;;;;;;;5035753;28;20048;-57
2023/04/12 13:04:36;;;;;;;3.42;1.60;;;;;;;;;;5039897;28;20056;-57
2023/04/12 13:07:02;;;;;;;5.82;1.85;;;;;;;;;;5026692;28;20049;-57
2023/04/12 13:09:30;;;;;;;2.67;1.02;;;;;;;;;;5043835;28;20029;-57
2023/04/12 13:11:56;;;;;;;2.38;1.27;;;;;;;;;;5038619;28;20502;-57
2023/04/12 13:14:22;;;;;;;5.03;2.05;;;;;;;;;;5041363;28;20371;-57
2023/04/12 13:16:49;;;;;;;8.07;3.88;;;;;;;;;;5035645;28;20036;-57
2023/04/12 13:19:15;;;;;;;2.90;1.67;;;;;;;;;;5034334;28;20056;-57
2023/04/12 13:21:41;;;;;;;1.88;1.08;;;;;;;;;;5033963;28;20415;-57
2023/04/12 13:24:08;;;;;;;1.60;1.13;;;;;;;;;;5042487;28;20025;-57
2023/04/12 13:26:34;;;;;;;3.15;1.55;;;;;;;;;;5041768;28;20040;-57
2023/04/12 13:29:01;;;;;;;3.30;1.42;;;;;;;;;;5037603;28;20408;-57
2023/04/12 13:31:27;;;;;;;4.47;1.67;;;;;;;;;;5035738;28;20037;-57
2023/04/12 13:33:53;;;;;;;2.55;1.60;;;;;;;;;;5040337;28;20033;-57
2023/04/12 13:36:20;;;;;;;5.50;1.27;;;;;;;;;;5044478;28;20061;-58
2023/04/12 13:38:46;;;;;;;2.20;1.20;;;;;;;;;;5045902;28;20049;-57
2023/04/12 13:41:13;;;;;;;4.63;1.48;;;;;;;;;;5046371;28;20044;-58
2023/04/12 13:43:39;;;;;;;3.72;1.92;;;;;;;;;;5042747;28;20052;-57
2023/04/12 13:46:06;;;;;;;3.90;1.33;;;;;;;;;;5043470;28;20049;-58
2023/04/12 13:48:32;;;;;;;6.80;3.97;;;;;;;;;;5047465;28;20395;-57
2023/04/12 13:50:58;;;;;;;2.35;1.90;;;;;;;;;;5040824;28;20494;-57
2023/04/12 13:53:25;;;;;;;4.15;1.40;;;;;;;;;;5047098;28;20075;-57
2023/04/12 13:55:51;;;;;;;2.13;1.40;;;;;;;;;;5043652;28;20970;-57
2023/04/12 13:58:17;;;;;;;2.03;1.20;;;;;;;;;;5041026;28;20052;-57
2023/04/12 14:00:43;;;;;;;2.10;1.48;;;;;;;;;;5036446;28;20029;-57
2023/04/12 14:03:09;;;;;;;4.68;1.60;;;;;;;;;;5042741;28;20053;-57
2023/04/12 14:05:36;;;;;;;2.78;1.10;;;;;;;;;;5041389;28;20376;-57
2023/04/12 14:08:02;;;;;;;1.65;1.30;;;;;;;;;;5040746;28;20057;-57
2023/04/12 14:10:28;;;;;;;2.95;1.27;;;;;;;;;;5035962;28;20041;-57
2023/04/12 14:12:54;;;;;;;2.03;1.13;;;;;;;;;;5038236;28;20059;-57
2023/04/12 14:15:20;;;;;;;3.10;1.50;;;;;;;;;;5036186;28;20044;-58
2023/04/12 14:17:47;;;;;;;2.67;1.27;;;;;;;;;;5036779;28;20037;-57
2023/04/12 14:20:13;;;;;;;7.03;2.33;;;;;;;;;;5035366;28;20063;-57
2023/04/12 14:22:39;;;;;;;0.80;0.80;;;;;;;;;;5038736;28;20045;-57
2023/04/12 14:25:06;;;;;;;1.65;1.27;;;;;;;;;;5042572;28;20494;-57
2023/04/12 14:27:34;;;;;;;3.08;1.35;;;;;;;;;;5041102;28;20049;-57
2023/04/12 14:30:00;;;;;;;1.63;1.25;;;;;;;;;;5035674;28;20422;-57
2023/04/12 14:32:26;;;;;;;4.75;1.40;;;;;;;;;;5037115;28;20060;-57
2023/04/12 14:34:52;;;;;;;2.38;1.00;;;;;;;;;;5041332;28;20044;-57
2023/04/12 14:37:18;;;;;;;7.35;3.17;;;;;;;;;;5042256;28;20029;-57
2023/04/12 14:39:44;;;;;;;3.00;1.30;;;;;;;;;;5044431;28;20052;-57
2023/04/12 14:42:11;;;;;;;3.63;2.70;;;;;;;;;;5037270;28;20517;-57
2023/04/12 14:44:37;;;;;;;3.25;2.08;;;;;;;;;;5029379;28;20097;-58
2023/04/12 14:47:04;;;;;;;3.58;1.20;;;;;;;;;;5044628;28;20060;-58
2023/04/12 14:49:30;;;;;;;2.72;1.40;;;;;;;;;;5037799;28;20053;-57
2023/04/12 14:51:56;;;;;;;2.88;1.33;;;;;;;;;;5040509;28;20477;-57
2023/04/12 14:54:22;;;;;;;2.38;1.45;;;;;;;;;;5039356;28;20025;-57